Weather reports worldwide

Advertisment
Arenys De Mar, Spain (8186): temperature & dewpoint: 22.01.2020 09:00:00 - 28.01.2020 09:00:00 (CET)Arenys De Mar, Spain (8186): wind speed & gusts: 22.01.2020 09:00:00 - 28.01.2020 09:00:00 (CET)Arenys De Mar, Spain (8186): wind direction: 22.01.2020 09:00:00 - 28.01.2020 09:00:00 (CET)Arenys De Mar, Spain (8186): precipitation: 22.01.2020 09:00:00 - 28.01.2020 09:00:00 (CET)
Date & Time tt [°C] td [°C] ff [km/h] ff [kn] fx [km/h] fx [kn] dd rr [mm]
28.01.2020 09:00:00 - - - - - - - -
28.01.2020 08:00:00 11,9 3,4 10 5 31 17 WNW 0,0
28.01.2020 07:00:00 11,6 3,0 10 6 26 14 W -
28.01.2020 06:00:00 11,1 2,9 10 5 27 15 W 0,0
28.01.2020 05:00:00 10,1 2,7 10 6 29 15 WSW 0,0
28.01.2020 04:00:00 10,8 2,7 9 5 26 14 W 0,0
28.01.2020 03:00:00 10,2 2,5 8 5 19 10 W 0,0
28.01.2020 02:00:00 8,7 2,5 1 0 10 5 SSE 0,0
28.01.2020 01:00:00 9,8 1,7 3 2 20 11 NNW -
28.01.2020 00:00:00 10,2 1,9 6 3 18 10 W 0,0
27.01.2020 23:00:00 9,4 1,3 1 0 22 12 SSW 0,0
27.01.2020 22:00:00 10,3 1,1 8 4 25 13 WSW 0,0
27.01.2020 21:00:00 10,4 0,9 7 4 20 11 SW 0,0
27.01.2020 20:00:00 10,2 0,4 4 2 14 7 SSW 0,0
27.01.2020 19:00:00 11,5 0,2 7 4 21 12 WSW -
27.01.2020 18:00:00 11,8 0,0 4 2 18 10 WSW 0,0
27.01.2020 17:00:00 13,1 0,2 9 5 25 13 WSW 0,0
27.01.2020 16:00:00 13,4 0,0 9 5 29 16 SW 0,0
27.01.2020 15:00:00 14,0 0,9 9 5 39 21 WSW 0,0
27.01.2020 14:00:00 14,0 0,6 14 8 37 20 WSW 0,0
27.01.2020 13:00:00 - - - - - - - -
27.01.2020 12:00:00 12,5 2,7 10 5 30 16 WSW 0,0
27.01.2020 11:00:00 11,6 2,3 12 6 27 15 SW 0,0
27.01.2020 10:00:00 11,0 3,8 4 2 16 8 S 0,0
27.01.2020 09:00:00 8,8 2,9 5 3 24 13 SW 0,0
27.01.2020 08:00:00 7,8 3,4 6 3 15 8 WSW 0,0
27.01.2020 07:00:00 8,7 4,1 8 4 17 9 WSW -
27.01.2020 06:00:00 8,4 3,8 3 2 12 7 WNW 0,0
27.01.2020 05:00:00 8,9 5,0 5 3 14 7 W 0,0
27.01.2020 04:00:00 8,4 5,1 2 1 16 9 W 0,0
27.01.2020 03:00:00 9,9 5,6 6 3 18 10 W 0,0
27.01.2020 02:00:00 8,7 6,8 3 2 9 5 W 0,0
27.01.2020 01:00:00 7,7 5,6 1 1 6 3 NNW -
27.01.2020 00:00:00 9,8 5,6 4 2 9 5 SW 0,0
26.01.2020 23:00:00 11,2 6,1 6 3 11 6 SW 0,0
26.01.2020 22:00:00 10,5 7,4 5 3 10 5 NW 0,0
26.01.2020 21:00:00 10,8 8,4 4 2 8 4 N 0,0
26.01.2020 20:00:00 10,9 9,0 3 1 6 3 N 0,0
26.01.2020 19:00:00 11,4 9,3 2 1 9 5 NW -
26.01.2020 18:00:00 11,8 9,7 3 2 9 5 WSW 0,1
26.01.2020 17:00:00 12,1 9,4 0 0 5 3 NW 0,0
26.01.2020 16:00:00 12,8 8,7 2 1 14 7 E 0,0
26.01.2020 15:00:00 13,9 9,2 4 2 18 10 SE 0,0
26.01.2020 14:00:00 15,3 6,1 5 3 13 7 SSE 0,0
26.01.2020 13:00:00 14,9 7,0 4 2 13 7 ESE -
26.01.2020 12:00:00 13,7 6,8 1 0 9 5 E 0,0
26.01.2020 11:00:00 16,4 7,8 1 0 5 3 NE 0,0
26.01.2020 10:00:00 10,6 7,8 0 0 12 7 N 0,0
26.01.2020 09:00:00 9,6 6,8 6 4 14 7 N 0,0
26.01.2020 08:00:00 9,2 7,3 4 2 11 6 N 0,0
26.01.2020 07:00:00 9,4 7,6 7 4 12 6 N -
26.01.2020 06:00:00 9,8 8,3 3 2 9 5 N 0,0
26.01.2020 05:00:00 9,6 7,8 5 3 12 7 NNW 0,0
26.01.2020 04:00:00 9,4 7,8 5 3 11 6 N 0,0
26.01.2020 03:00:00 9,2 7,7 5 3 13 7 N 0,0
26.01.2020 02:00:00 9,5 8,0 5 3 13 7 N 0,0
26.01.2020 01:00:00 9,6 8,0 4 2 13 7 NNW -
26.01.2020 00:00:00 10,6 9,0 3 2 8 4 NNW 0,0
25.01.2020 23:00:00 11,1 9,6 4 2 8 5 N 0,0
25.01.2020 22:00:00 11,4 9,8 0 0 0 0 N 0,0
25.01.2020 21:00:00 12,3 10,5 0 0 3 2 N 0,0
25.01.2020 20:00:00 12,6 10,6 0 0 5 3 ESE 0,0
25.01.2020 19:00:00 12,3 10,0 0 0 3 2 N -
25.01.2020 18:00:00 12,5 9,7 0 0 4 2 NNE 0,0
25.01.2020 17:00:00 12,8 9,4 1 0 5 3 ENE 0,0
25.01.2020 16:00:00 13,4 8,9 1 0 10 5 SE 0,0
25.01.2020 15:00:00 14,2 7,7 4 2 8 5 S 0,0
25.01.2020 14:00:00 14,0 7,1 0 0 8 4 ESE 0,0
25.01.2020 13:00:00 13,7 7,3 0 0 5 3 SSE -
25.01.2020 12:00:00 14,0 8,0 0 0 6 3 NE 0,0
25.01.2020 11:00:00 12,2 8,7 3 2 7 4 N 0,0
25.01.2020 10:00:00 11,5 8,9 1 0 9 5 WSW 0,0
25.01.2020 09:00:00 8,6 7,0 3 2 8 5 N 0,0
25.01.2020 08:00:00 7,5 5,9 4 2 9 5 N 0,0
25.01.2020 07:00:00 7,7 6,1 5 3 10 5 NNW -
25.01.2020 06:00:00 8,0 6,4 5 3 9 5 NNW 0,0
25.01.2020 05:00:00 8,0 6,7 6 3 9 5 N 0,0
25.01.2020 04:00:00 8,3 6,7 3 2 6 4 N 0,0
25.01.2020 03:00:00 8,4 6,8 5 3 11 6 N 0,0
25.01.2020 02:00:00 8,0 6,7 5 3 9 5 NNW 0,0
25.01.2020 01:00:00 8,2 6,5 3 2 9 5 N -
25.01.2020 00:00:00 8,6 6,5 5 3 13 7 NNW 0,0
24.01.2020 23:00:00 9,0 6,5 6 3 13 7 N 0,0
24.01.2020 22:00:00 8,5 6,2 5 3 8 4 N 0,0
24.01.2020 21:00:00 8,9 6,2 2 1 10 5 NW 0,0
24.01.2020 20:00:00 9,2 6,2 1 1 8 4 WSW 0,0
24.01.2020 19:00:00 9,4 7,0 3 2 8 5 N -
24.01.2020 18:00:00 11,0 8,3 1 0 9 5 WNW 0,0
24.01.2020 17:00:00 13,5 8,1 5 3 18 10 SW 0,0
24.01.2020 16:00:00 13,9 6,5 8 5 17 9 SW 0,0
24.01.2020 15:00:00 14,2 6,5 6 4 16 9 SW 0,0
24.01.2020 14:00:00 14,9 5,6 6 3 16 9 SW 0,0
24.01.2020 13:00:00 14,8 5,6 8 4 16 8 S -
24.01.2020 12:00:00 15,7 4,5 3 2 13 7 S 0,0
24.01.2020 11:00:00 12,9 5,3 3 2 7 4 SSW 0,0
24.01.2020 10:00:00 10,7 5,6 1 1 11 6 N 0,0
24.01.2020 09:00:00 6,8 4,1 6 3 12 6 N 0,0
24.01.2020 08:00:00 6,1 3,9 5 3 22 12 N 0,0
24.01.2020 07:00:00 6,0 3,9 3 2 10 6 N -
24.01.2020 06:00:00 6,3 4,5 4 2 10 5 N 0,0
24.01.2020 05:00:00 6,7 5,0 6 3 10 5 N 0,0
24.01.2020 04:00:00 7,1 5,3 5 3 10 5 N 0,0
24.01.2020 03:00:00 6,8 5,1 5 3 10 6 N 0,0
24.01.2020 02:00:00 7,4 5,6 4 2 8 5 N 0,0
24.01.2020 01:00:00 7,6 5,8 6 3 10 5 N -
24.01.2020 00:00:00 8,3 5,9 4 2 11 6 NNW 0,0
23.01.2020 23:00:00 8,6 6,1 5 3 12 7 N 0,0
23.01.2020 22:00:00 8,1 6,2 5 3 10 5 N 0,0
23.01.2020 21:00:00 8,2 5,9 4 2 9 5 N 0,0
23.01.2020 20:00:00 8,8 6,2 4 2 8 4 NNW 0,0
23.01.2020 19:00:00 9,0 6,8 3 2 6 3 N -
23.01.2020 18:00:00 10,8 8,0 2 1 10 6 WSW 0,0
23.01.2020 17:00:00 12,5 8,3 5 3 16 9 SSW 0,0
23.01.2020 16:00:00 12,9 7,6 6 4 14 7 S 0,0
23.01.2020 15:00:00 13,3 7,3 6 3 12 7 S 0,0
23.01.2020 14:00:00 15,4 8,8 6 3 13 7 SSW 0,0
23.01.2020 13:00:00 15,5 7,7 4 2 11 6 S -
23.01.2020 12:00:00 14,9 8,8 3 1 10 5 SSE 0,0
23.01.2020 11:00:00 13,1 11,3 1 1 7 4 S 0,0
23.01.2020 10:00:00 12,2 10,8 1 1 5 3 N 0,0
23.01.2020 09:00:00 11,5 10,0 2 1 9 5 NNW 0,6
23.01.2020 08:00:00 11,3 9,9 4 2 28 15 S 3,3
23.01.2020 07:00:00 13,6 12,1 7 4 27 15 SE -
23.01.2020 06:00:00 13,6 12,1 4 2 25 13 ESE 0,1
23.01.2020 05:00:00 13,4 12,0 3 1 29 16 ESE 0,4
23.01.2020 04:00:00 13,3 11,9 6 3 29 15 E 1,3
23.01.2020 03:00:00 13,4 12,0 4 2 27 15 E 1,2
23.01.2020 02:00:00 13,2 11,8 3 2 24 13 NE 1,3
23.01.2020 01:00:00 13,5 12,1 3 2 16 9 NNE -
23.01.2020 00:00:00 13,6 12,0 1 0 21 11 ESE 0,9
22.01.2020 23:00:00 14,0 11,6 3 1 21 12 ENE 0,0
22.01.2020 22:00:00 13,8 11,7 4 2 23 12 E 0,1
22.01.2020 21:00:00 13,9 11,6 4 2 28 15 ESE 0,0
22.01.2020 20:00:00 13,9 11,4 4 2 27 15 E 0,0
22.01.2020 19:00:00 13,9 11,6 6 3 31 17 E -
22.01.2020 18:00:00 13,9 11,6 4 2 31 17 E 0,0
22.01.2020 17:00:00 13,9 11,8 3 1 25 14 E 0,0
22.01.2020 16:00:00 13,9 11,9 4 2 33 18 ENE 0,0
22.01.2020 15:00:00 14,0 12,0 3 2 27 15 E 0,1
22.01.2020 14:00:00 13,8 11,9 2 1 19 10 ENE 0,0
22.01.2020 13:00:00 14,0 12,0 3 2 27 15 E -
22.01.2020 12:00:00 13,8 12,2 5 3 30 16 ESE 0,0
22.01.2020 11:00:00 13,7 12,1 3 2 22 12 ESE 0,2
22.01.2020 10:00:00 13,7 12,1 4 2 21 11 ESE 0,0
22.01.2020 09:00:00 13,7 12,1 5 3 21 12 ESE 0,0

tt = temperature
td = dewpoint
ff = wind speed
fx = gusts
dd = wind direction
rr = precipitation

Next stations